Time;durP1;ratioP1;P1;durP2;ratioP2;P2;SDS_P1;SDS_P2;PMS_P1;PMS_P2;Temp;Humidity;BMP_temperature;BMP_pressure;BME280_temperature;BME280_humidity;BME280_pressure;Samples;Min_cycle;Max_cycle;Signal;HPM_P1;HPM_P2
2023/09/27 00:00:35;;;;;;;19.70;10.38;;;;;;;;;;5092320;28;20028;-77
2023/09/27 00:03:03;;;;;;;17.27;10.50;;;;;;;;;;5088447;28;20093;-75
2023/09/27 00:05:29;;;;;;;17.23;10.20;;;;;;;;;;5089112;28;20474;-75
2023/09/27 00:07:56;;;;;;;17.10;10.80;;;;;;;;;;5093164;28;20042;-75
2023/09/27 00:10:22;;;;;;;17.88;11.20;;;;;;;;;;5092708;28;20047;-77
2023/09/27 00:12:48;;;;;;;14.75;10.85;;;;;;;;;;5093878;28;20094;-75
2023/09/27 00:15:14;;;;;;;14.38;10.25;;;;;;;;;;5093631;28;20028;-75
2023/09/27 00:17:41;;;;;;;14.80;10.30;;;;;;;;;;5094295;28;20035;-75
2023/09/27 00:20:15;;;;;;;15.77;10.25;;;;;;;;;;5093861;28;20103;-75
2023/09/27 00:22:42;;;;;;;21.07;10.47;;;;;;;;;;5093754;28;20027;-76
2023/09/27 00:25:08;;;;;;;15.98;10.93;;;;;;;;;;5093791;28;20253;-75
2023/09/27 00:27:35;;;;;;;15.73;11.20;;;;;;;;;;5094152;28;20028;-76
2023/09/27 00:30:02;;;;;;;18.52;11.23;;;;;;;;;;5094595;28;20032;-76
2023/09/27 00:32:28;;;;;;;17.70;10.77;;;;;;;;;;5094515;28;20470;-77
2023/09/27 00:34:54;;;;;;;17.45;11.38;;;;;;;;;;5093759;28;20051;-76
2023/09/27 00:37:20;;;;;;;20.33;11.25;;;;;;;;;;5093500;28;20024;-74
2023/09/27 00:39:46;;;;;;;16.40;10.93;;;;;;;;;;5093727;28;20024;-76
2023/09/27 00:42:12;;;;;;;18.27;12.02;;;;;;;;;;5094315;28;20531;-74
2023/09/27 00:44:39;;;;;;;18.77;11.15;;;;;;;;;;5095160;28;20033;-77
2023/09/27 00:47:05;;;;;;;18.30;11.63;;;;;;;;;;5098103;28;20024;-74
2023/09/27 00:49:31;;;;;;;18.90;11.25;;;;;;;;;;5102685;28;20024;-75
2023/09/27 00:51:58;;;;;;;15.63;11.27;;;;;;;;;;5103615;28;20024;-75
2023/09/27 00:54:24;;;;;;;16.65;11.88;;;;;;;;;;5106632;28;20032;-74
2023/09/27 00:56:51;;;;;;;20.13;12.10;;;;;;;;;;5107928;28;20100;-75
2023/09/27 00:59:18;;;;;;;18.52;12.63;;;;;;;;;;5092850;28;20020;-75
2023/09/27 01:01:44;;;;;;;22.55;12.77;;;;;;;;;;5092868;28;20030;-75
2023/09/27 01:04:11;;;;;;;20.83;11.50;;;;;;;;;;5092679;28;20025;-75
2023/09/27 01:06:37;;;;;;;17.90;13.20;;;;;;;;;;5092706;28;20039;-75
2023/09/27 01:09:03;;;;;;;15.88;11.75;;;;;;;;;;5092302;28;20035;-75
2023/09/27 01:11:29;;;;;;;19.83;12.35;;;;;;;;;;5092806;28;20448;-74
2023/09/27 01:13:56;;;;;;;18.83;13.63;;;;;;;;;;5092583;28;20470;-75
2023/09/27 01:16:22;;;;;;;20.35;13.75;;;;;;;;;;5092487;28;20032;-74
2023/09/27 01:18:49;;;;;;;20.67;12.57;;;;;;;;;;5092474;28;20070;-75
2023/09/27 01:21:19;;;;;;;19.13;12.32;;;;;;;;;;5095651;28;20024;-75
2023/09/27 01:23:47;;;;;;;15.77;12.05;;;;;;;;;;5093892;28;20020;-75
2023/09/27 01:26:13;;;;;;;21.75;13.63;;;;;;;;;;5092736;28;20438;-74
2023/09/27 01:28:41;;;;;;;17.98;13.75;;;;;;;;;;5109440;22;20063;-71
2023/09/27 01:31:07;;;;;;;17.00;12.73;;;;;;;;;;5071635;28;20029;-73
2023/09/27 01:33:33;;;;;;;20.70;14.15;;;;;;;;;;5071661;28;20510;-73
2023/09/27 01:35:59;;;;;;;18.73;13.85;;;;;;;;;;5071280;28;20067;-73
2023/09/27 01:38:25;;;;;;;17.48;13.88;;;;;;;;;;5071519;28;20024;-74
2023/09/27 01:40:51;;;;;;;18.88;13.93;;;;;;;;;;5071611;28;20028;-73
2023/09/27 01:43:17;;;;;;;19.73;14.70;;;;;;;;;;5071433;28;20048;-73
2023/09/27 01:45:44;;;;;;;26.90;14.68;;;;;;;;;;5071394;28;20130;-73
2023/09/27 01:48:10;;;;;;;17.95;14.00;;;;;;;;;;5070713;28;20418;-74
2023/09/27 01:50:36;;;;;;;18.60;13.95;;;;;;;;;;5071296;28;20031;-74
2023/09/27 01:53:03;;;;;;;18.15;13.77;;;;;;;;;;5071307;28;20020;-74
2023/09/27 01:55:29;;;;;;;21.25;15.25;;;;;;;;;;5069829;28;20059;-73
2023/09/27 01:57:55;;;;;;;20.33;14.70;;;;;;;;;;5071055;28;20102;-73
2023/09/27 02:00:22;;;;;;;23.63;13.88;;;;;;;;;;5071277;28;20073;-73
2023/09/27 02:02:49;;;;;;;21.50;15.02;;;;;;;;;;5071441;28;20062;-74
2023/09/27 02:05:15;;;;;;;24.42;14.80;;;;;;;;;;5071331;28;20066;-74
2023/09/27 02:07:41;;;;;;;25.63;15.45;;;;;;;;;;5071897;28;20028;-75
2023/09/27 02:10:08;;;;;;;18.63;14.23;;;;;;;;;;5066358;28;20033;-73
2023/09/27 02:12:34;;;;;;;21.25;16.60;;;;;;;;;;5072471;28;20047;-74
2023/09/27 02:15:00;;;;;;;20.63;14.60;;;;;;;;;;5069961;28;20488;-74
2023/09/27 02:17:26;;;;;;;22.63;13.93;;;;;;;;;;5051075;28;20039;-75
2023/09/27 02:19:52;;;;;;;20.15;14.98;;;;;;;;;;5052750;28;20021;-73
2023/09/27 02:22:18;;;;;;;18.98;14.20;;;;;;;;;;5073492;28;20475;-74
2023/09/27 02:24:44;;;;;;;18.65;13.65;;;;;;;;;;5074214;28;20031;-75
2023/09/27 02:27:10;;;;;;;19.02;13.30;;;;;;;;;;5060718;28;20479;-74
2023/09/27 02:29:37;;;;;;;20.58;14.10;;;;;;;;;;5074721;28;20068;-74
2023/09/27 02:32:05;;;;;;;21.13;14.00;;;;;;;;;;5055504;28;20435;-73
2023/09/27 02:34:30;;;;;;;21.52;13.80;;;;;;;;;;5054659;28;20452;-74
2023/09/27 02:36:56;;;;;;;24.65;15.13;;;;;;;;;;5065903;28;20029;-74
2023/09/27 02:39:22;;;;;;;18.88;14.18;;;;;;;;;;5074820;28;20021;-74
2023/09/27 02:41:48;;;;;;;20.52;13.07;;;;;;;;;;5069909;28;20521;-72
2023/09/27 02:44:14;;;;;;;20.98;12.45;;;;;;;;;;5076778;28;20024;-73
2023/09/27 02:46:40;;;;;;;15.80;12.00;;;;;;;;;;5058926;28;20067;-74
2023/09/27 02:49:07;;;;;;;17.48;12.60;;;;;;;;;;5061002;28;20104;-75
2023/09/27 02:51:33;;;;;;;17.50;12.75;;;;;;;;;;5060142;28;20111;-74
2023/09/27 02:53:59;;;;;;;15.55;12.10;;;;;;;;;;5054345;28;20471;-75
2023/09/27 02:56:25;;;;;;;16.92;12.35;;;;;;;;;;5055064;28;20031;-73
2023/09/27 02:58:51;;;;;;;16.85;12.23;;;;;;;;;;5054586;28;20025;-75
2023/09/27 03:01:17;;;;;;;17.17;12.70;;;;;;;;;;5053963;28;20048;-75
2023/09/27 03:03:44;;;;;;;20.65;13.10;;;;;;;;;;5054833;28;20549;-74
2023/09/27 03:06:16;;;;;;;18.17;13.02;;;;;;;;;;5055994;28;20108;-75
2023/09/27 03:08:43;;;;;;;17.27;12.32;;;;;;;;;;5055840;28;20025;-75
2023/09/27 03:11:09;;;;;;;20.23;13.95;;;;;;;;;;5057173;28;20034;-74
2023/09/27 03:13:38;;;;;;;22.38;14.35;;;;;;;;;;5058142;28;20025;-73
2023/09/27 03:16:04;;;;;;;20.63;14.48;;;;;;;;;;5053881;28;20037;-75
2023/09/27 03:18:33;;;;;;;17.75;13.23;;;;;;;;;;5053782;28;20045;-74
2023/09/27 03:20:59;;;;;;;19.38;14.07;;;;;;;;;;5053684;28;20036;-74
2023/09/27 03:23:27;;;;;;;20.45;13.75;;;;;;;;;;5053742;28;20483;-73
2023/09/27 03:25:53;;;;;;;18.92;13.45;;;;;;;;;;5053608;28;20021;-74
2023/09/27 03:28:18;;;;;;;18.60;13.40;;;;;;;;;;5053009;28;20024;-74
2023/09/27 03:30:46;;;;;;;17.20;12.70;;;;;;;;;;5052155;28;20423;-79
2023/09/27 03:33:12;;;;;;;18.45;13.98;;;;;;;;;;5051793;28;20025;-74
2023/09/27 03:35:38;;;;;;;19.15;13.52;;;;;;;;;;5052052;28;20017;-74
2023/09/27 03:38:05;;;;;;;18.50;13.85;;;;;;;;;;5052686;28;20510;-75
2023/09/27 03:40:31;;;;;;;21.85;14.38;;;;;;;;;;5052292;28;20021;-74
2023/09/27 03:42:57;;;;;;;19.23;14.40;;;;;;;;;;5052330;28;20593;-75
2023/09/27 03:45:23;;;;;;;19.90;13.57;;;;;;;;;;5052013;28;20031;-75
2023/09/27 03:47:49;;;;;;;24.73;14.18;;;;;;;;;;5052398;28;20029;-75
2023/09/27 03:50:16;;;;;;;21.38;14.30;;;;;;;;;;5052375;28;20033;-74
2023/09/27 03:52:42;;;;;;;18.33;13.48;;;;;;;;;;5052330;28;20502;-74
2023/09/27 03:55:08;;;;;;;19.85;13.30;;;;;;;;;;5052281;28;20074;-74
2023/09/27 03:57:35;;;;;;;15.20;13.18;;;;;;;;;;5052347;28;20029;-74
2023/09/27 04:00:01;;;;;;;17.38;13.27;;;;;;;;;;5053050;28;20163;-76
2023/09/27 04:02:29;;;;;;;20.38;13.60;;;;;;;;;;5053693;28;20040;-77
2023/09/27 04:04:54;;;;;;;17.85;13.10;;;;;;;;;;5055520;28;20023;-74
2023/09/27 04:07:20;;;;;;;19.30;13.35;;;;;;;;;;5053224;28;20179;-74
2023/09/27 04:09:47;;;;;;;18.55;13.43;;;;;;;;;;5053147;28;20471;-74
2023/09/27 04:12:13;;;;;;;18.30;14.48;;;;;;;;;;5053048;28;20025;-75
2023/09/27 04:14:39;;;;;;;14.27;11.93;;;;;;;;;;5051775;28;20032;-72
2023/09/27 04:17:05;;;;;;;20.08;12.65;;;;;;;;;;5052315;28;20539;-72
2023/09/27 04:19:32;;;;;;;18.55;13.35;;;;;;;;;;5052510;28;20056;-72
2023/09/27 04:21:59;;;;;;;17.80;12.75;;;;;;;;;;5052559;28;20055;-74
2023/09/27 04:24:25;;;;;;;18.02;13.25;;;;;;;;;;5052728;28;20017;-73
2023/09/27 04:26:51;;;;;;;16.83;13.07;;;;;;;;;;5052926;28;20028;-74
2023/09/27 04:29:17;;;;;;;22.17;14.55;;;;;;;;;;5053576;28;20445;-74
2023/09/27 04:31:43;;;;;;;20.83;14.77;;;;;;;;;;5055542;28;20033;-74
2023/09/27 04:34:09;;;;;;;16.92;12.82;;;;;;;;;;5056712;28;20048;-75
2023/09/27 04:36:35;;;;;;;22.00;14.10;;;;;;;;;;5052576;28;20108;-72
2023/09/27 04:39:01;;;;;;;24.83;14.77;;;;;;;;;;5052247;28;20025;-74
2023/09/27 04:41:27;;;;;;;26.10;14.57;;;;;;;;;;5052750;28;20043;-77
2023/09/27 04:43:53;;;;;;;22.42;14.60;;;;;;;;;;5068867;28;20031;-75
2023/09/27 04:46:19;;;;;;;28.55;15.32;;;;;;;;;;5071509;28;20032;-75
2023/09/27 04:48:46;;;;;;;24.27;15.45;;;;;;;;;;5079372;28;20020;-78
2023/09/27 04:51:12;;;;;;;24.77;13.85;;;;;;;;;;5072068;28;20090;-76
2023/09/27 04:53:38;;;;;;;23.10;13.73;;;;;;;;;;5074377;28;20024;-75
2023/09/27 04:56:12;;;;;;;17.65;13.88;;;;;;;;;;5072419;28;20029;-75
2023/09/27 04:58:41;;;;;;;;;;;;;;;;;;5077256;28;20434;-75
2023/09/27 05:01:07;;;;;;;23.67;14.00;;;;;;;;;;5070279;28;20391;-77
2023/09/27 05:03:33;;;;;;;25.05;16.10;;;;;;;;;;5074785;28;20152;-78
2023/09/27 05:05:59;;;;;;;25.40;14.65;;;;;;;;;;5071762;28;20032;-76
2023/09/27 05:08:26;;;;;;;21.80;15.15;;;;;;;;;;5074188;28;20028;-75
2023/09/27 05:10:52;;;;;;;24.25;15.65;;;;;;;;;;5070404;28;20024;-77
2023/09/27 05:13:21;;;;;;;21.52;14.27;;;;;;;;;;5082488;28;20032;-77
2023/09/27 05:15:48;;;;;;;20.27;13.85;;;;;;;;;;5089755;28;20020;-75
2023/09/27 05:18:14;;;;;;;18.38;13.85;;;;;;;;;;5092146;28;20016;-76
2023/09/27 05:20:40;;;;;;;22.85;13.82;;;;;;;;;;5093583;28;20020;-75
2023/09/27 05:23:05;;;;;;;22.05;13.90;;;;;;;;;;5095002;28;20486;-77
2023/09/27 05:25:32;;;;;;;26.08;14.70;;;;;;;;;;5092592;28;20059;-75
2023/09/27 05:27:58;;;;;;;19.65;14.35;;;;;;;;;;5085938;28;20406;-76
2023/09/27 05:30:24;;;;;;;22.15;14.25;;;;;;;;;;5069052;28;20032;-78
2023/09/27 05:32:50;;;;;;;26.13;15.57;;;;;;;;;;5072602;28;20391;-76
2023/09/27 05:35:16;;;;;;;20.65;15.18;;;;;;;;;;5070569;28;20115;-75
2023/09/27 05:37:42;;;;;;;20.48;15.13;;;;;;;;;;5071760;28;20029;-76
2023/09/27 05:40:10;;;;;;;25.38;15.18;;;;;;;;;;5071939;28;20024;-74
2023/09/27 05:42:36;;;;;;;20.35;14.43;;;;;;;;;;5069748;28;20543;-73
2023/09/27 05:45:04;;;;;;;20.25;13.48;;;;;;;;;;5076056;28;20136;-74
2023/09/27 05:47:30;;;;;;;31.05;14.43;;;;;;;;;;5071559;28;20016;-76
2023/09/27 05:49:56;;;;;;;34.38;17.10;;;;;;;;;;5070833;28;20387;-74
2023/09/27 05:52:22;;;;;;;21.90;15.52;;;;;;;;;;5073953;28;20383;-74
2023/09/27 05:54:51;;;;;;;23.27;14.93;;;;;;;;;;5074251;28;20133;-73
2023/09/27 05:57:17;;;;;;;22.30;15.65;;;;;;;;;;5075872;28;20016;-78
2023/09/27 05:59:47;;;;;;;21.83;14.70;;;;;;;;;;5074208;28;20027;-79
2023/09/27 06:02:16;;;;;;;21.17;15.32;;;;;;;;;;5079754;28;20107;-74
2023/09/27 06:04:45;;;;;;;18.88;14.25;;;;;;;;;;5080232;28;20066;-76
2023/09/27 06:07:13;;;;;;;21.25;15.05;;;;;;;;;;5083881;28;20434;-76
2023/09/27 06:09:42;;;;;;;23.67;15.10;;;;;;;;;;5071006;28;20032;-76
2023/09/27 06:12:10;;;;;;;23.63;16.40;;;;;;;;;;5074862;28;20505;-75
2023/09/27 06:14:36;;;;;;;24.10;17.38;;;;;;;;;;5076016;28;20043;-74
2023/09/27 06:17:06;;;;;;;32.35;18.33;;;;;;;;;;5074789;28;20435;-77
2023/09/27 06:19:32;;;;;;;24.73;17.25;;;;;;;;;;5084911;28;20023;-75
2023/09/27 06:21:58;;;;;;;28.70;18.67;;;;;;;;;;5094840;28;20044;-74
2023/09/27 06:24:26;;;;;;;24.60;18.00;;;;;;;;;;5098112;28;20035;-74
2023/09/27 06:26:52;;;;;;;23.33;17.98;;;;;;;;;;5097416;28;20039;-80
2023/09/27 06:29:19;;;;;;;29.48;17.55;;;;;;;;;;5097199;28;20043;-77
2023/09/27 06:31:46;;;;;;;31.90;18.48;;;;;;;;;;5095383;28;20638;-75
2023/09/27 06:34:14;;;;;;;28.38;18.38;;;;;;;;;;5089315;28;20112;-72
2023/09/27 06:36:42;;;;;;;33.83;17.83;;;;;;;;;;5073677;28;20104;-74
2023/09/27 06:39:12;;;;;;;27.65;16.73;;;;;;;;;;5074785;28;20020;-75
2023/09/27 06:41:39;;;;;;;28.48;17.48;;;;;;;;;;5073466;28;20074;-74
2023/09/27 06:44:06;;;;;;;31.83;16.23;;;;;;;;;;5075776;28;20028;-74
2023/09/27 06:46:32;;;;;;;29.35;18.75;;;;;;;;;;5075309;28;20094;-75
2023/09/27 06:48:59;;;;;;;26.73;16.70;;;;;;;;;;5075545;28;20031;-76
2023/09/27 06:51:25;;;;;;;24.92;15.45;;;;;;;;;;5078501;28;20031;-79
2023/09/27 06:53:52;;;;;;;28.67;17.27;;;;;;;;;;5082922;28;20050;-74
2023/09/27 06:56:18;;;;;;;29.35;16.48;;;;;;;;;;5075367;28;20029;-74
2023/09/27 06:58:44;;;;;;;22.25;15.55;;;;;;;;;;5073751;28;20483;-75
2023/09/27 07:01:10;;;;;;;26.13;16.45;;;;;;;;;;5073985;28;20082;-75
2023/09/27 07:03:37;;;;;;;30.17;15.77;;;;;;;;;;5076760;28;20044;-73
2023/09/27 07:06:03;;;;;;;26.52;16.17;;;;;;;;;;5078436;28;20399;-75
2023/09/27 07:08:29;;;;;;;35.42;15.85;;;;;;;;;;5076547;28;20032;-74
2023/09/27 07:10:55;;;;;;;23.40;15.05;;;;;;;;;;5077892;28;20025;-76
2023/09/27 07:13:21;;;;;;;26.58;16.20;;;;;;;;;;5075676;28;20073;-76
2023/09/27 07:15:48;;;;;;;28.55;16.52;;;;;;;;;;5072397;28;20062;-78
2023/09/27 07:18:14;;;;;;;28.60;15.82;;;;;;;;;;5073811;28;20100;-78
2023/09/27 07:20:43;;;;;;;19.63;13.95;;;;;;;;;;5074248;28;20108;-78
2023/09/27 07:23:14;;;;;;;25.45;14.70;;;;;;;;;;5074611;28;20092;-78
2023/09/27 07:25:41;;;;;;;20.30;13.40;;;;;;;;;;5075869;28;20017;-75
2023/09/27 07:28:07;;;;;;;27.55;16.92;;;;;;;;;;5074883;28;20066;-78
2023/09/27 07:30:36;;;;;;;24.25;14.98;;;;;;;;;;5075702;28;20032;-80
2023/09/27 07:33:06;;;;;;;21.05;13.52;;;;;;;;;;5078637;28;20089;-79
2023/09/27 07:35:34;;;;;;;22.70;12.18;;;;;;;;;;5077012;28;20021;-76
2023/09/27 07:38:00;;;;;;;23.92;14.52;;;;;;;;;;5073456;28;20082;-76
2023/09/27 07:40:27;;;;;;;24.10;13.02;;;;;;;;;;5073932;28;20506;-76
2023/09/27 07:42:53;;;;;;;19.75;12.40;;;;;;;;;;5074747;28;20033;-77
2023/09/27 07:45:23;;;;;;;20.90;12.63;;;;;;;;;;5074073;28;20021;-78
2023/09/27 07:47:53;;;;;;;21.80;12.50;;;;;;;;;;5071910;28;20028;-75
2023/09/27 07:50:31;;;;;;;26.80;12.88;;;;;;;;;;5077940;28;20032;-76
2023/09/27 07:53:02;;;;;;;22.42;11.90;;;;;;;;;;5076742;28;20031;-74
2023/09/27 07:55:29;;;;;;;25.33;12.70;;;;;;;;;;5073256;28;20048;-76
2023/09/27 07:57:55;;;;;;;20.75;11.85;;;;;;;;;;5074376;28;20486;-75
2023/09/27 08:00:27;;;;;;;22.73;10.88;;;;;;;;;;5069458;28;20020;-75
2023/09/27 08:02:55;;;;;;;17.27;10.55;;;;;;;;;;5054880;28;20021;-74
2023/09/27 08:05:22;;;;;;;18.95;10.32;;;;;;;;;;5052973;28;20013;-72
2023/09/27 08:07:49;;;;;;;22.15;11.85;;;;;;;;;;5053611;28;20029;-74
2023/09/27 08:10:15;;;;;;;17.92;10.77;;;;;;;;;;5052326;28;20059;-74
2023/09/27 08:12:43;;;;;;;26.00;11.40;;;;;;;;;;5064351;28;20078;-75
2023/09/27 08:15:09;;;;;;;22.17;10.50;;;;;;;;;;5070521;28;20082;-75
2023/09/27 08:17:35;;;;;;;20.98;9.18;;;;;;;;;;5052124;28;20073;-75
2023/09/27 08:20:06;;;;;;;17.48;8.90;;;;;;;;;;5053451;28;20031;-75
2023/09/27 08:22:34;;;;;;;21.00;8.85;;;;;;;;;;5053133;28;20029;-74
2023/09/27 08:25:00;;;;;;;22.42;9.40;;;;;;;;;;5053270;28;20021;-73
2023/09/27 08:27:26;;;;;;;19.15;7.90;;;;;;;;;;5052196;28;20045;-73
2023/09/27 08:29:52;;;;;;;13.57;7.60;;;;;;;;;;5052152;28;20432;-71
2023/09/27 08:32:18;;;;;;;13.48;7.68;;;;;;;;;;5052247;28;20171;-74
2023/09/27 08:34:46;;;;;;;12.05;6.68;;;;;;;;;;5052344;28;20487;-73
2023/09/27 08:37:12;;;;;;;12.68;7.20;;;;;;;;;;5051811;28;20617;-73
2023/09/27 08:39:39;;;;;;;12.82;7.72;;;;;;;;;;5052101;28;20384;-74
2023/09/27 08:42:05;;;;;;;14.88;6.75;;;;;;;;;;5053865;28;20387;-75
2023/09/27 08:44:32;;;;;;;17.30;6.60;;;;;;;;;;5055320;28;20021;-74
2023/09/27 08:46:58;;;;;;;14.02;6.60;;;;;;;;;;5052472;28;20049;-74
2023/09/27 08:49:25;;;;;;;14.30;6.95;;;;;;;;;;5053311;28;20033;-75
2023/09/27 08:51:51;;;;;;;12.82;6.70;;;;;;;;;;5052533;28;20124;-75
2023/09/27 08:54:21;;;;;;;22.25;5.93;;;;;;;;;;5050891;28;20021;-73
2023/09/27 08:56:48;;;;;;;24.50;9.57;;;;;;;;;;5052080;28;20099;-74
2023/09/27 08:59:14;;;;;;;12.15;5.65;;;;;;;;;;5053840;28;20048;-76
2023/09/27 09:01:43;;;;;;;14.05;4.72;;;;;;;;;;5052208;28;20430;-79
2023/09/27 09:04:09;;;;;;;15.52;6.32;;;;;;;;;;5053831;28;20101;-78
2023/09/27 09:06:35;;;;;;;13.32;5.82;;;;;;;;;;5053280;28;20471;-78
2023/09/27 09:09:11;;;;;;;14.23;5.53;;;;;;;;;;5057696;28;20029;-77
2023/09/27 09:11:48;;;;;;;14.80;6.03;;;;;;;;;;5065389;28;20021;-77
2023/09/27 09:14:21;;;;;;;11.80;5.72;;;;;;;;;;5050962;28;20021;-75
2023/09/27 09:16:51;;;;;;;17.77;6.55;;;;;;;;;;5051781;28;20384;-77
2023/09/27 09:19:24;;;;;;;15.20;7.03;;;;;;;;;;5051697;28;20028;-77
2023/09/27 09:22:03;;;;;;;11.13;6.03;;;;;;;;;;5052133;28;20025;-79
2023/09/27 09:24:29;;;;;;;15.27;6.68;;;;;;;;;;5052224;28;20107;-78
2023/09/27 09:27:07;;;;;;;18.98;5.85;;;;;;;;;;5052579;28;20545;-76
2023/09/27 09:29:46;;;;;;;12.50;5.95;;;;;;;;;;5050055;28;20033;-74
2023/09/27 09:32:17;;;;;;;12.05;4.70;;;;;;;;;;5051612;28;20491;-74
2023/09/27 09:34:44;;;;;;;18.02;4.97;;;;;;;;;;5051564;28;20025;-73
2023/09/27 09:37:28;;;;;;;10.43;4.78;;;;;;;;;;5051352;28;20017;-74
2023/09/27 09:39:54;;;;;;;;;;;;;;;;;;5052042;28;20017;-73
2023/09/27 09:42:33;;;;;;;13.35;4.93;;;;;;;;;;5051760;28;20315;-73
2023/09/27 09:45:06;;;;;;;17.17;5.68;;;;;;;;;;5051153;28;20021;-75
2023/09/27 09:47:35;;;;;;;12.45;5.22;;;;;;;;;;5051183;28;20043;-74
2023/09/27 09:50:02;;;;;;;16.10;4.70;;;;;;;;;;5051271;28;20024;-75
2023/09/27 09:52:32;;;;;;;13.85;4.72;;;;;;;;;;5051478;28;20099;-76
2023/09/27 09:54:58;;;;;;;11.90;5.18;;;;;;;;;;5051761;28;20036;-74
2023/09/27 09:57:32;;;;;;;10.18;5.00;;;;;;;;;;5050576;28;20025;-74
2023/09/27 10:00:13;;;;;;;10.45;5.13;;;;;;;;;;5056824;28;20036;-76
2023/09/27 10:02:43;;;;;;;14.25;4.82;;;;;;;;;;5080260;28;20048;-73
2023/09/27 10:05:09;;;;;;;9.15;4.50;;;;;;;;;;5071124;28;20444;-75
2023/09/27 10:07:35;;;;;;;14.55;5.90;;;;;;;;;;5069941;28;20024;-75
2023/09/27 10:10:03;;;;;;;10.98;4.43;;;;;;;;;;5071149;28;20379;-75
2023/09/27 10:12:30;;;;;;;12.27;4.68;;;;;;;;;;5071682;28;20048;-74
2023/09/27 10:14:57;;;;;;;7.60;4.07;;;;;;;;;;5071033;28;20024;-73
2023/09/27 10:17:29;;;;;;;14.15;4.30;;;;;;;;;;5071007;28;20057;-73
2023/09/27 10:20:11;;;;;;;15.50;6.03;;;;;;;;;;5071561;28;20438;-73
2023/09/27 10:22:38;;;;;;;15.43;4.70;;;;;;;;;;5071875;28;20017;-73
2023/09/27 10:25:04;;;;;;;13.38;4.45;;;;;;;;;;5070684;28;20076;-73
2023/09/27 10:27:48;;;;;;;9.55;4.60;;;;;;;;;;5070593;28;20029;-74
2023/09/27 10:30:14;;;;;;;10.90;4.50;;;;;;;;;;5070601;28;20044;-74
2023/09/27 10:32:40;;;;;;;11.10;4.03;;;;;;;;;;5070539;28;20031;-74
2023/09/27 10:35:16;;;;;;;15.98;4.45;;;;;;;;;;5074735;28;20103;-74
2023/09/27 10:37:58;;;;;;;9.02;4.53;;;;;;;;;;5076883;28;20107;-74
2023/09/27 10:40:25;;;;;;;16.30;4.28;;;;;;;;;;5085136;28;20028;-73
2023/09/27 10:42:51;;;;;;;12.30;4.32;;;;;;;;;;5095107;28;20020;-73
2023/09/27 10:45:17;;;;;;;15.13;4.85;;;;;;;;;;5098492;28;20043;-74
2023/09/27 10:47:44;;;;;;;9.00;3.95;;;;;;;;;;5097328;28;20097;-73
2023/09/27 10:50:10;;;;;;;9.43;3.72;;;;;;;;;;5098889;28;20048;-73
2023/09/27 10:52:38;;;;;;;9.25;3.85;;;;;;;;;;5098196;28;20029;-74
2023/09/27 10:55:11;;;;;;;9.43;4.57;;;;;;;;;;5090184;28;20025;-72
2023/09/27 10:57:39;;;;;;;18.33;6.95;;;;;;;;;;5091295;28;20024;-72
2023/09/27 11:00:12;;;;;;;11.95;4.45;;;;;;;;;;5074780;28;20029;-72
2023/09/27 11:02:38;;;;;;;12.05;4.65;;;;;;;;;;5074639;28;20061;-73
2023/09/27 11:05:05;;;;;;;16.92;4.70;;;;;;;;;;5074077;28;20156;-73
2023/09/27 11:07:51;;;;;;;12.70;5.32;;;;;;;;;;5073751;28;20052;-73
2023/09/27 11:10:30;;;;;;;13.02;4.88;;;;;;;;;;5074540;28;20093;-75
2023/09/27 11:13:10;;;;;;;10.98;4.68;;;;;;;;;;5075031;28;20038;-74
2023/09/27 11:15:37;;;;;;;12.43;4.68;;;;;;;;;;5073528;28;20021;-74
2023/09/27 11:18:04;;;;;;;14.40;4.47;;;;;;;;;;5073654;28;20333;-73
2023/09/27 11:20:30;;;;;;;10.30;4.30;;;;;;;;;;5073752;28;20052;-73
2023/09/27 11:22:58;;;;;;;13.45;4.90;;;;;;;;;;5073547;28;20032;-73
2023/09/27 11:25:28;;;;;;;15.38;4.13;;;;;;;;;;5073241;28;20493;-73
2023/09/27 11:27:54;;;;;;;20.88;5.30;;;;;;;;;;5073383;28;20119;-73
2023/09/27 11:30:30;;;;;;;15.57;5.28;;;;;;;;;;5072175;28;20055;-74
2023/09/27 11:32:57;;;;;;;20.92;4.75;;;;;;;;;;5073880;28;20028;-74
2023/09/27 11:35:27;;;;;;;22.40;5.40;;;;;;;;;;5073479;28;20031;-75
2023/09/27 11:38:12;;;;;;;15.43;5.05;;;;;;;;;;5073657;28;20476;-74
2023/09/27 11:40:39;;;;;;;15.68;5.15;;;;;;;;;;5073957;28;20025;-74
2023/09/27 11:43:05;;;;;;;10.48;4.07;;;;;;;;;;5073200;28;20020;-74
2023/09/27 11:45:47;;;;;;;9.80;3.88;;;;;;;;;;5073068;28;20638;-74
2023/09/27 11:48:14;;;;;;;8.80;4.60;;;;;;;;;;5073074;28;20025;-75
2023/09/27 11:50:40;;;;;;;10.50;4.28;;;;;;;;;;5073080;28;20020;-74
2023/09/27 11:53:06;;;;;;;11.77;3.85;;;;;;;;;;5072757;28;20033;-74
2023/09/27 11:55:32;;;;;;;8.88;4.20;;;;;;;;;;5072503;28;20021;-73
2023/09/27 11:57:59;;;;;;;12.93;4.57;;;;;;;;;;5072750;28;20032;-75
2023/09/27 12:00:25;;;;;;;7.50;3.78;;;;;;;;;;5073450;28;20383;-74
2023/09/27 12:02:52;;;;;;;8.02;3.90;;;;;;;;;;5074727;28;20128;-74
2023/09/27 12:05:18;;;;;;;10.43;4.50;;;;;;;;;;5084186;28;20071;-75
2023/09/27 12:07:44;;;;;;;14.90;4.65;;;;;;;;;;5072786;28;20021;-74
2023/09/27 12:10:11;;;;;;;14.68;4.97;;;;;;;;;;5072800;28;20078;-74
2023/09/27 12:12:40;;;;;;;7.40;3.80;;;;;;;;;;5073068;28;20383;-74
2023/09/27 12:15:07;;;;;;;10.77;4.03;;;;;;;;;;5072682;28;20021;-74
2023/09/27 12:17:32;;;;;;;14.32;4.18;;;;;;;;;;5072456;28;20032;-74
2023/09/27 12:19:58;;;;;;;19.92;5.25;;;;;;;;;;5072519;28;20380;-76
2023/09/27 12:22:25;;;;;;;10.10;4.68;;;;;;;;;;5073132;28;20020;-75
2023/09/27 12:24:51;;;;;;;14.70;4.70;;;;;;;;;;5072662;28;20017;-74
2023/09/27 12:27:17;;;;;;;8.27;3.83;;;;;;;;;;5073193;28;20029;-75
2023/09/27 12:29:43;;;;;;;10.90;4.10;;;;;;;;;;5072669;28;20089;-73
2023/09/27 12:32:10;;;;;;;12.90;4.18;;;;;;;;;;5072270;28;20126;-74
2023/09/27 12:34:36;;;;;;;7.22;3.85;;;;;;;;;;5072277;28;20395;-74
2023/09/27 12:37:02;;;;;;;13.45;4.13;;;;;;;;;;5075935;28;20028;-76
2023/09/27 12:39:28;;;;;;;8.57;4.45;;;;;;;;;;5073416;28;20024;-78
2023/09/27 12:41:57;;;;;;;9.48;4.00;;;;;;;;;;5074487;28;20039;-77
2023/09/27 12:44:23;;;;;;;12.98;4.80;;;;;;;;;;5072989;28;20159;-77
2023/09/27 12:46:49;;;;;;;7.88;3.78;;;;;;;;;;5072656;28;20028;-75
2023/09/27 12:49:15;;;;;;;7.20;3.38;;;;;;;;;;5070627;28;20028;-74
2023/09/27 12:51:41;;;;;;;15.23;4.22;;;;;;;;;;5069151;28;20020;-74
2023/09/27 12:54:08;;;;;;;9.00;3.60;;;;;;;;;;5073678;28;20029;-74
2023/09/27 12:56:34;;;;;;;7.47;3.60;;;;;;;;;;5071349;28;20078;-73
2023/09/27 12:59:00;;;;;;;9.93;3.60;;;;;;;;;;5074301;28;20017;-75
2023/09/27 13:01:26;;;;;;;11.07;4.13;;;;;;;;;;5066502;28;20028;-74
2023/09/27 13:03:52;;;;;;;12.40;3.90;;;;;;;;;;5071073;28;20032;-74
2023/09/27 13:06:18;;;;;;;19.23;3.75;;;;;;;;;;5071849;28;20055;-73
2023/09/27 13:08:44;;;;;;;9.48;3.78;;;;;;;;;;5070239;28;20074;-73
2023/09/27 13:11:10;;;;;;;13.30;4.03;;;;;;;;;;5072096;28;20035;-74
2023/09/27 13:13:36;;;;;;;15.95;4.03;;;;;;;;;;5071758;28;20020;-74
2023/09/27 13:16:02;;;;;;;9.23;3.67;;;;;;;;;;5085418;28;20052;-74
2023/09/27 13:18:28;;;;;;;9.82;3.40;;;;;;;;;;5067777;28;20148;-74
2023/09/27 13:20:54;;;;;;;6.07;3.38;;;;;;;;;;5072463;28;20383;-74
2023/09/27 13:23:20;;;;;;;7.57;3.47;;;;;;;;;;5071184;28;20098;-75
2023/09/27 13:25:53;;;;;;;8.57;4.15;;;;;;;;;;5077607;28;20016;-75
2023/09/27 13:28:20;;;;;;;6.53;3.83;;;;;;;;;;5070800;28;20033;-74
2023/09/27 13:30:46;;;;;;;7.40;3.72;;;;;;;;;;5077153;28;20324;-74
2023/09/27 13:33:12;;;;;;;6.72;3.65;;;;;;;;;;5073008;28;20445;-74
2023/09/27 13:35:38;;;;;;;6.75;3.38;;;;;;;;;;5071147;28;20104;-73
2023/09/27 13:38:08;;;;;;;6.75;3.38;;;;;;;;;;5070826;28;20036;-74
2023/09/27 13:40:34;;;;;;;7.13;3.42;;;;;;;;;;5070676;28;20029;-74
2023/09/27 13:43:00;;;;;;;6.57;3.60;;;;;;;;;;5072709;28;20407;-73
2023/09/27 13:45:26;;;;;;;11.38;4.70;;;;;;;;;;5080253;28;20048;-73
2023/09/27 13:47:52;;;;;;;12.20;4.15;;;;;;;;;;5076530;28;20025;-73
2023/09/27 13:50:19;;;;;;;13.02;4.80;;;;;;;;;;5071173;28;20556;-73
2023/09/27 13:52:45;;;;;;;13.35;4.55;;;;;;;;;;5070904;28;20029;-73
2023/09/27 13:55:11;;;;;;;13.50;4.88;;;;;;;;;;5070217;28;20028;-73
2023/09/27 13:57:38;;;;;;;13.10;4.53;;;;;;;;;;5074008;28;20078;-72
2023/09/27 14:00:07;;;;;;;15.50;4.80;;;;;;;;;;5072841;28;20092;-74
2023/09/27 14:02:33;;;;;;;12.88;4.78;;;;;;;;;;5073952;28;20529;-75
2023/09/27 14:04:59;;;;;;;13.93;4.30;;;;;;;;;;5071064;28;20033;-74
2023/09/27 14:07:25;;;;;;;12.77;4.30;;;;;;;;;;5070452;28;20104;-73
2023/09/27 14:09:51;;;;;;;12.50;3.95;;;;;;;;;;5071104;28;20034;-75
2023/09/27 14:12:17;;;;;;;10.50;4.25;;;;;;;;;;5071195;28;20479;-77
2023/09/27 14:14:44;;;;;;;10.20;4.03;;;;;;;;;;5072652;28;20025;-75
2023/09/27 14:17:10;;;;;;;20.45;5.82;;;;;;;;;;5074598;28;20020;-75
2023/09/27 14:19:36;;;;;;;11.43;4.25;;;;;;;;;;5074586;28;20028;-75
2023/09/27 14:22:02;;;;;;;8.48;4.10;;;;;;;;;;5074402;28;20024;-76
2023/09/27 14:24:31;;;;;;;19.23;4.80;;;;;;;;;;5075301;28;20017;-75